ADDS METAR Data INFO
IDs: Format: Raw Decoded Include TAF

Data at: 0159 UTC 19 Jul 2018

KGTU 190156Z 15004KT 10SM CLR 34/16 A2991 RMK AO2 SLP118 T03440161
KGTU 190056Z 16006KT 10SM CLR 37/14 A2990 RMK AO2 SLP114 T03670144
KGTU 182356Z 15009KT 10SM CLR 37/16 A2990 RMK AO2 SLP113 T03720156 10389 20361 56014
KGTU 182256Z 16009KT 10SM CLR 38/16 A2990 RMK AO2 SLP115 T03830156
KGTU 182156Z 14008KT 120V180 10SM CLR 38/17 A2992 RMK AO2 SLP122 T03830167
KGTU 182056Z 13008KT 10SM CLR 38/15 A2994 RMK AO2 SLP129 T03830150 56023
KGTU 181956Z VRB05G15KT 10SM CLR 37/17 A2996 RMK AO2 SLP136 T03720167
KGTU 181856Z VRB05KT 10SM CLR 37/18 A2998 RMK AO2 SLP144 T03720178
KGTU 181756Z 19009KT 10SM CLR 36/18 A3001 RMK AO2 SLP152 T03610183 10361 20250 58012
KGTU 181656Z 19010KT 10SM CLR 34/19 A3003 RMK AO2 SLP157 T03390194
KGTU 181556Z 21012KT 10SM CLR 32/21 A3003 RMK AO2 SLP158 T03220211
KGTU 181456Z 21010G17KT 10SM CLR 31/21 A3004 RMK AO2 SLP163 T03060206 58001
KGTU 181356Z 22013KT 10SM CLR 28/22 A3005 RMK AO2 SLP166 T02830222
KGTU 181256Z 23007KT 10SM CLR 26/23 A3005 RMK AO2 SLP165 T02610228
KGTU 181231Z 22008KT 10SM CLR 26/23 A3005 RMK AO2
KGTU 181156Z 22010KT 10SM BKN010 25/23 A3005 RMK AO2 SLP165 T02500228 10289 20250 51005
KGTU 181152Z 21008KT 10SM BKN010 25/23 A3005 RMK AO2
KGTU 180956Z AUTO 20009KT 10SM CLR 26/23 A3003 RMK AO2 SLP159 T02560228
KGTU 180856Z AUTO 20008KT 10SM CLR 26/23 A3003 RMK AO2 SLP160 T02610228 52003
KGTU 180756Z AUTO 20012KT 10SM CLR 27/23 A3003 RMK AO2 SLP159 T02670228
KGTU 180656Z AUTO 18009KT 7SM CLR 28/22 A3003 RMK AO2 SLP160 T02780222
KGTU 180556Z AUTO 17008KT 10SM CLR 29/22 A3002 RMK AO2 SLP157 T02890222 10372 20289 403830233 50006
KGTU 180456Z AUTO 16006KT 10SM CLR 29/21 A3003 RMK AO2 SLP159 T02940211
KGTU 180256Z AUTO 17005KT 10SM CLR 32/18 A3001 RMK AO2 SLP151 T03220178 51008
KGTU 180156Z 19006KT 10SM CLR 33/17 A3000 RMK AO2 SLP151 T03330167
KGTU 180056Z 17004KT 10SM CLR 36/16 A2999 RMK AO2 SLP146 T03610156
KGTU 172356Z 16008G15KT 10SM CLR 37/17 A2998 RMK AO2 SLP142 T03720167 10383 20339 56015
KGTU 172256Z 18012KT 10SM CLR 38/16 A2999 RMK AO2 SLP146 T03780156
KGTU 172156Z 15009G16KT 10SM CLR 38/16 A3000 RMK AO2 SLP149 T03780161
KGTU 172056Z 17008G16KT 10SM CLR 37/16 A3003 RMK AO2 SLP158 T03720161 58023
KGTU 171956Z 17009KT 10SM CLR 36/17 A3006 RMK AO2 SLP168 T03610172
KGTU 171856Z 16010G14KT 10SM CLR 36/17 A3007 RMK AO2 SLP171 T03610172
KGTU 171756Z 20007KT 120V230 10SM CLR 34/18 A3009 RMK AO2 SLP181 T03440183 10344 20239 56008
KGTU 171656Z 23009KT 10SM CLR 32/20 A3010 RMK AO2 SLP185 T03220200
KGTU 171556Z 19011G16KT 10SM CLR 31/21 A3010 RMK AO2 SLP184 T03060211
KGTU 171456Z 23010KT 10SM CLR 28/22 A3012 RMK AO2 SLP190 T02830217 51006